Latest Weather Observations for Marree Airport

IDS60801

Issued at 10:05 pm CST Wednesday 23 April 2014 (issued every 30 minutes, with the page automatically refreshed every 10 minutes)

About weather observations | Map of weather stations | Latest weather observations for SA | Other Formats
Station Details ID: 017126 Name: MARREE AERO Lat: -29.66 Lon: 138.07 Height: 50.0 m
Data from the previous 72 hours. | See also: Recent months for locations in South Australia
Date/Time
CST
Temp
°C
App
Temp
°C
Dew
Point
Rel
Hum
%
Delta-T
°C
Wind Press
QNH
hPa
Press
MSL
hPa
Rain
since 9 am
mm
Dir
 
Spd
km/h
Gust
km/h
Spd
kts
Gust
kts
23/10:00pm 17.8 13.2 5.4 44 6.0 SSW 19 20 10 11 1016.2 - 0.0
23/09:30pm 18.3 13.9 4.8 41 6.5 SW 17 19 9 10 1016.2 - 0.0
23/09:00pm 18.9 14.7 3.9 37 7.1 SSW 15 17 8 9 1016.2 1016.1 0.0
23/08:30pm 19.5 14.4 3.2 34 7.7 SW 19 20 10 11 1016.1 - 0.0
23/08:00pm 19.4 15.2 3.6 35 7.5 SW 15 19 8 10 1015.8 - 0.0
23/07:30pm 20.2 15.8 4.7 36 7.5 SW 17 19 9 10 1015.6 - 0.0
23/07:00pm 21.2 17.2 4.7 34 8.1 SSW 15 17 8 9 1015.4 - 0.0
23/06:30pm 22.3 18.3 4.8 32 8.7 SW 15 17 8 9 1014.9 - 0.0
23/06:00pm 23.6 18.5 4.0 28 9.6 SW 20 22 11 12 1014.3 1014.1 0.0
23/05:30pm 24.9 19.6 5.2 28 10.0 SW 22 28 12 15 1013.9 - 0.0
23/05:00pm 25.9 20.4 6.0 28 10.3 SW 24 28 13 15 1013.8 - 0.0
23/04:30pm 26.3 21.3 6.3 28 10.4 WSW 22 26 12 14 1013.7 - 0.0
23/04:00pm 27.1 22.6 7.0 28 10.7 SW 20 32 11 17 1014.0 - 0.0
23/03:30pm 27.1 22.6 7.0 28 10.7 SW 20 28 11 15 1013.9 - 0.0
23/03:00pm 27.5 23.9 8.4 30 10.4 WSW 17 26 9 14 1013.9 1013.7 0.0
23/02:30pm 27.4 24.3 8.8 31 10.2 W 15 24 8 13 1013.9 - 0.0
23/02:00pm 27.4 24.5 9.7 33 9.8 WSW 15 24 8 13 1014.1 - 0.0
23/01:30pm 26.6 23.8 9.9 35 9.3 SW 15 28 8 15 1014.3 - 0.0
23/01:00pm 26.0 22.8 9.8 36 9.0 WSW 17 22 9 12 1014.7 - 0.0
23/12:30pm 26.2 23.0 10.0 36 9.0 SW 17 24 9 13 1015.1 - 0.0
23/12:00pm 25.5 22.7 10.1 38 8.5 SW 15 24 8 13 1015.7 1015.6 0.0
23/11:30am 25.4 21.8 9.7 37 8.6 WSW 19 24 10 13 1016.1 - 0.0
23/11:00am 24.6 23.9 10.1 40 8.0 NNE 4 7 2 4 1016.6 - 0.0
23/10:30am 23.4 22.8 10.5 44 7.1 W 4 7 2 4 1017.0 - 0.0
23/10:00am 21.7 21.2 10.8 50 6.0 SE 4 7 2 4 1017.1 - 0.0
23/09:30am 20.0 20.0 11.2 57 4.8 SSW 2 7 1 4 1017.1 - 0.0
23/09:00am 18.3 18.3 11.1 63 3.9 S 2 6 1 3 1016.9 1016.8 0.0
23/08:30am 17.0 16.3 11.3 69 3.1 SSE 6 7 3 4 1016.8 - 0.0
23/08:00am 15.4 14.5 10.8 74 2.4 SE 6 9 3 5 1016.5 - 0.0
23/07:30am 13.8 12.9 10.8 82 1.6 SE 6 6 3 3 1016.1 - 0.0
23/07:00am 12.6 11.0 10.1 85 1.3 SE 9 11 5 6 1015.7 - 0.0
23/06:30am 12.8 10.5 10.5 86 1.2 SE 13 13 7 7 1015.5 - 0.0
23/06:00am 12.7 10.7 10.1 84 1.3 ESE 11 13 6 7 1015.2 1015.1 0.0
23/05:30am 13.3 11.7 10.1 81 1.7 SSE 9 11 5 6 1015.3 - 0.0
23/05:00am 13.8 12.6 10.4 80 1.8 S 7 11 4 6 1015.2 - 0.0
23/04:30am 14.3 12.1 10.7 79 1.9 SSE 13 13 7 7 1015.2 - 0.0
23/04:00am 14.8 12.6 10.8 77 2.1 S 13 15 7 8 1015.1 - 0.0
23/03:30am 15.9 13.1 11.5 75 2.4 S 17 19 9 10 1015.2 - 0.0
23/03:00am 15.0 12.8 10.8 76 2.2 S 13 15 7 8 1015.3 1015.2 0.0
23/02:30am 15.3 12.4 10.9 75 2.3 S 17 20 9 11 1015.3 - 0.0
23/02:00am 15.1 12.8 10.3 73 2.5 SSE 13 17 7 9 1015.4 - 0.0
23/01:30am 15.7 13.0 10.5 71 2.8 SE 15 17 8 9 1015.5 - 0.0
23/01:00am 15.6 13.8 9.3 66 3.3 SE 9 9 5 5 1015.6 - 0.0
23/12:30am 17.0 15.8 10.4 65 3.5 S 7 9 4 5 1015.6 - 0.0
23/12:00am 17.3 15.3 10.0 62 3.9 S 11 13 6 7 1015.6 1015.5 0.0
 
Date/Time
CST
Temp
°C
App
Temp
°C
Dew
Point
Rel
Hum
%
Delta-T
°C
Wind Press
QNH
hPa
Press
MSL
hPa
Rain
since 9 am
mm
Dir
 
Spd
km/h
Gust
km/h
Spd
kts
Gust
kts
22/11:30pm 18.4 16.4 10.0 58 4.5 S 11 15 6 8 1015.7 - 0.0
22/11:00pm 19.2 16.5 9.1 52 5.3 SSW 13 15 7 8 1015.8 - 0.0
22/10:30pm 21.8 17.3 4.4 32 8.5 SW 17 24 9 13 1015.5 - 0.0
22/10:00pm 20.4 17.9 4.8 36 7.6 N 7 9 4 5 1015.4 - 0.0
22/09:30pm 20.8 17.8 4.0 33 8.1 N 9 9 5 5 1015.3 - 0.0
22/09:00pm 21.4 18.0 4.0 32 8.4 N 11 11 6 6 1015.3 1015.2 0.0
22/08:30pm 22.5 18.6 3.6 29 9.2 N 13 13 7 7 1015.1 - 0.0
22/08:00pm 23.0 19.2 4.0 29 9.3 N 13 15 7 8 1015.0 - 0.0
22/07:30pm 23.8 19.6 3.7 27 9.8 N 15 17 8 9 1014.9 - 0.0
22/07:00pm 25.3 21.9 3.9 25 10.6 N 11 11 6 6 1014.7 - 0.0
22/06:30pm 26.2 23.1 3.4 23 11.3 NNW 9 11 5 6 1014.4 - 0.0
22/06:00pm 27.0 23.4 2.8 21 11.9 NNW 11 15 6 8 1014.3 1014.1 0.0
22/05:30pm 29.1 24.8 3.1 19 13.0 NW 15 19 8 10 1014.0 - 0.0
22/05:00pm 30.1 25.3 2.4 17 13.8 NW 17 22 9 12 1014.1 - 0.0
22/04:30pm 30.5 26.1 2.7 17 14.0 NW 15 20 8 11 1014.1 - 0.0
22/04:00pm 30.9 25.7 2.2 16 14.3 NW 19 26 10 14 1014.1 - 0.0
22/03:30pm 31.1 26.6 2.3 16 14.4 NW 15 26 8 14 1014.1 - 0.0
22/03:00pm 31.0 25.2 2.3 16 14.4 WNW 22 28 12 15 1014.2 1014.0 0.0
22/02:30pm 31.0 26.5 2.3 16 14.4 WNW 15 22 8 12 1014.3 - 0.0
22/02:00pm 31.2 26.2 1.5 15 14.7 W 17 28 9 15 1014.4 - 0.0
22/01:30pm 31.0 25.2 2.3 16 14.4 WNW 22 37 12 20 1014.8 - 0.0
22/01:00pm 31.3 26.6 3.4 17 14.3 NW 17 28 9 15 1015.2 - 0.0
22/12:30pm 30.6 24.9 2.8 17 14.0 N 22 32 12 17 1015.7 - 0.0
22/12:00pm 30.0 24.8 2.3 17 13.8 NW 19 33 10 18 1016.2 1016.1 0.0
22/11:30am 29.9 23.8 3.0 18 13.5 NNW 24 32 13 17 1016.5 - 0.0
22/11:00am 29.6 23.5 2.8 18 13.4 NNW 24 35 13 19 1016.9 - 0.0
22/10:30am 29.3 23.7 3.3 19 13.1 N 22 32 12 17 1017.1 - 0.0
22/10:00am 27.6 23.5 4.6 23 11.7 N 15 22 8 12 1017.3 - 0.0
22/09:30am 24.5 21.8 5.8 30 9.6 N 9 13 5 7 1017.4 - 0.0
22/09:00am 22.5 20.1 5.4 33 8.6 N 7 9 4 5 1017.4 1017.3 0.0
22/08:30am 20.7 19.8 5.9 38 7.4 CALM 0 0 0 0 1017.2 - 0.0
22/08:00am 18.0 16.7 7.7 51 5.2 WSW 4 9 2 5 1017.0 - 0.0
22/07:30am 15.7 15.2 7.7 59 4.0 CALM 0 0 0 0 1016.8 - 0.0
22/07:00am 15.7 13.7 6.4 54 4.5 NE 6 7 3 4 1016.4 - 0.0
22/06:30am 15.7 14.9 6.4 54 4.5 CALM 0 0 0 0 1016.0 - 0.0
22/06:00am 16.8 14.7 5.7 48 5.4 N 6 7 3 4 1015.5 1015.4 0.0
22/05:30am 17.1 14.5 6.0 48 5.4 NNE 9 11 5 6 1015.2 - 0.0
22/05:00am 17.0 14.0 5.9 48 5.4 NNE 11 11 6 6 1015.2 - 0.0
22/04:30am 17.2 13.8 6.1 48 5.4 N 13 13 7 7 1015.1 - 0.0
22/04:00am 17.6 14.6 5.9 46 5.7 NNE 11 13 6 7 1015.0 - 0.0
22/03:30am 17.7 14.2 5.6 45 5.9 N 13 15 7 8 1014.9 - 0.0
22/03:00am 18.1 14.3 5.7 44 6.1 N 15 17 8 9 1015.0 1014.9 0.0
22/02:30am 18.6 14.4 5.8 43 6.3 N 17 17 9 9 1015.3 - 0.0
22/02:00am 19.2 15.0 5.6 41 6.7 NNE 17 20 9 11 1015.5 - 0.0
22/01:30am 19.8 15.2 5.5 39 7.0 NNE 19 24 10 13 1015.6 - 0.0
22/01:00am 19.4 15.6 5.8 41 6.7 N 15 17 8 9 1015.8 - 0.0
22/12:30am 19.9 16.4 5.5 39 7.1 N 13 15 7 8 1015.9 - 0.0
22/12:00am 20.2 15.6 5.8 39 7.1 N 19 20 10 11 1015.9 1015.8 0.0
 
Date/Time
CST
Temp
°C
App
Temp
°C
Dew
Point
Rel
Hum
%
Delta-T
°C
Wind Press
QNH
hPa
Press
MSL
hPa
Rain
since 9 am
mm
Dir
 
Spd
km/h
Gust
km/h
Spd
kts
Gust
kts
21/11:30pm 20.2 16.0 5.8 39 7.2 N 17 17 9 9 1016.0 - 0.0
21/11:00pm 20.6 17.6 6.2 39 7.2 N 11 13 6 7 1016.3 - 0.0
21/10:30pm 20.5 18.3 6.1 39 7.2 N 7 9 4 5 1016.5 - 0.0
21/10:00pm 20.7 17.8 6.3 39 7.3 N 11 13 6 7 1016.6 - 0.0
21/09:30pm 21.2 18.2 5.9 37 7.7 N 11 13 6 7 1016.6 - 0.0
21/09:00pm 21.9 18.6 6.2 36 7.9 N 13 13 7 7 1016.5 1016.4 0.0
21/08:30pm 23.1 20.2 6.4 34 8.6 N 11 11 6 6 1016.3 - 0.0
21/08:00pm 23.5 20.9 5.9 32 9.0 NNW 9 11 5 6 1016.2 - 0.0
21/07:30pm 23.5 20.9 6.3 33 8.8 NW 9 11 5 6 1016.0 - 0.0
21/07:00pm 23.9 20.6 6.2 32 9.1 NW 13 13 7 7 1015.9 - 0.0
21/06:30pm 24.8 21.4 6.1 30 9.6 NW 13 15 7 8 1015.9 - 0.0
21/06:00pm 26.2 22.6 5.2 26 10.7 NW 13 15 7 8 1015.6 1015.5 0.0
21/05:30pm 28.0 23.1 4.3 22 12.1 NW 19 24 10 13 1015.5 - 0.0
21/05:00pm 28.6 23.1 4.2 21 12.4 NW 22 28 12 15 1015.3 - 0.0
21/04:30pm 29.1 24.1 4.6 21 12.6 NW 20 28 11 15 1015.3 - 0.0
21/04:00pm 29.3 25.0 5.4 22 12.5 NW 17 35 9 19 1015.2 - 0.0
21/03:30pm 29.9 25.6 5.2 21 12.9 NNW 17 22 9 12 1015.2 - 0.0
21/03:00pm 30.4 26.2 5.6 21 13.1 WNW 17 22 9 12 1015.5 1015.4 0.0
21/02:30pm 30.4 24.8 5.6 21 13.1 NW 24 32 13 17 1015.3 - 0.0
21/02:00pm 31.0 26.4 5.4 20 13.5 NNW 19 33 10 18 1015.5 - 0.0
21/01:30pm 30.0 25.3 5.3 21 12.9 NW 19 24 10 13 1015.8 - 0.0
21/01:00pm 29.7 23.7 5.1 21 12.8 N 26 35 14 19 1016.4 - 0.0
21/12:30pm 29.8 25.2 6.5 23 12.4 NNW 20 35 11 19 1017.0 - 0.0
21/12:00pm 28.9 24.7 7.5 26 11.5 NNW 19 28 10 15 1017.6 1017.5 0.0
21/11:30am 28.1 23.6 6.8 26 11.3 N 20 28 11 15 1018.1 - 0.0
21/11:00am 28.0 24.1 7.3 27 11.1 N 17 22 9 12 1018.5 - 0.0
21/10:30am 27.0 23.6 7.5 29 10.4 N 15 20 8 11 1018.8 - 0.0
21/10:00am 25.1 21.8 8.1 34 9.1 N 15 20 8 11 1019.1 - 0.0
21/09:30am 24.3 20.6 7.9 35 8.7 NNE 17 20 9 11 1019.2 - 0.0
21/09:00am 23.3 20.5 8.6 39 7.8 NE 13 19 7 10 1019.4 1019.3 0.0
21/08:30am 20.4 18.2 9.3 49 5.9 ENE 11 13 6 7 1019.4 - 0.0
21/08:00am 18.6 17.1 9.1 54 5.0 ESE 7 9 4 5 1019.4 - 0.0
21/07:30am 16.5 15.0 9.2 62 3.8 SSE 7 9 4 5 1019.1 - 0.0
21/07:00am 14.5 12.1 8.7 68 2.9 SSE 11 13 6 7 1018.7 - 0.0
21/06:30am 13.8 11.3 8.4 70 2.7 S 11 13 6 7 1018.5 - 0.0
21/06:00am 14.4 11.6 8.4 67 3.0 S 13 13 7 7 1018.3 1018.2 0.0
21/05:30am 15.1 11.9 8.6 65 3.3 SSE 15 17 8 9 1018.1 - 0.0
21/05:00am 14.8 11.9 8.3 65 3.3 SSE 13 15 7 8 1017.7 - 0.0
21/04:30am 15.9 13.4 8.4 61 3.8 SSE 11 13 6 7 1017.6 - 0.0
21/04:00am 16.0 13.5 8.2 60 4.0 SSE 11 11 6 6 1017.5 - 0.0
21/03:30am 16.4 14.3 8.4 59 4.1 SE 9 11 5 6 1017.3 - 0.0
21/03:00am 17.0 14.8 7.9 55 4.6 ESE 9 9 5 5 1017.3 1017.2 0.0
21/02:30am 18.1 16.0 8.1 52 5.1 SE 9 11 5 6 1017.4 - 0.0
21/02:00am 18.3 16.3 8.8 54 4.9 S 9 13 5 7 1017.4 - 0.0
21/01:30am 16.7 14.0 8.9 60 4.0 SE 13 15 7 8 1017.4 - 0.0
21/01:00am 16.8 14.1 8.8 59 4.1 ESE 13 19 7 10 1017.5 - 0.0
21/12:30am 16.8 14.9 9.0 60 4.0 SE 9 11 5 6 1017.5 - 0.0
21/12:00am 17.8 15.9 8.9 56 4.6 SE 9 9 5 5 1017.5 1017.4 0.0
 
Date/Time
CST
Temp
°C
App
Temp
°C
Dew
Point
Rel
Hum
%
Delta-T
°C
Wind Press
QNH
hPa
Press
MSL
hPa
Rain
since 9 am
mm
Dir
 
Spd
km/h
Gust
km/h
Spd
kts
Gust
kts
20/11:30pm 17.9 16.0 9.0 56 4.6 SE 9 11 5 6 1017.6 - 0.0
20/11:00pm 19.1 17.6 9.3 53 5.2 SE 7 9 4 5 1017.7 - 0.0
20/10:30pm 19.1 16.7 8.7 51 5.4 SSE 11 13 6 7 1017.8 - 0.0

Other Formats:

Comma delimited format used in spreadsheet applications
http://www.bom.gov.au/fwo/IDS60801/IDS60801.95480.axf

JavaScript Object Notation format (JSON) in row-major order
http://www.bom.gov.au/fwo/IDS60801/IDS60801.95480.json